createdAt,value
2023-08-22T00:02:51.119Z,13.00
2023-08-22T00:06:11.822Z,13.30
2023-08-22T00:09:36.800Z,13.50
2023-08-22T00:13:00.713Z,12.30
2023-08-22T00:16:19.799Z,13.80
2023-08-22T00:19:41.253Z,12.50
2023-08-22T00:22:59.370Z,12.40
2023-08-22T00:26:19.375Z,12.40
2023-08-22T00:29:37.882Z,13.00
2023-08-22T00:32:50.593Z,13.10
2023-08-22T00:36:15.622Z,13.30
2023-08-22T00:39:51.894Z,14.00
2023-08-22T00:43:14.705Z,16.30
2023-08-22T00:46:39.558Z,14.20
2023-08-22T00:49:59.553Z,14.30
2023-08-22T00:53:18.404Z,12.40
2023-08-22T00:56:38.090Z,12.40
2023-08-22T01:00:05.343Z,13.40
2023-08-22T01:03:20.460Z,14.50
2023-08-22T01:07:07.422Z,11.80
2023-08-22T01:10:43.461Z,12.10
2023-08-22T01:14:07.752Z,11.10
2023-08-22T01:17:29.237Z,12.50
2023-08-22T01:21:07.231Z,12.20
2023-08-22T01:24:27.635Z,12.30
2023-08-22T01:27:52.256Z,12.70
2023-08-22T01:31:08.599Z,12.90
2023-08-22T01:34:30.689Z,11.10
2023-08-22T01:37:48.073Z,11.10
2023-08-22T01:41:17.089Z,11.80
2023-08-22T01:44:38.393Z,11.70
2023-08-22T01:47:56.746Z,12.70
2023-08-22T01:51:16.765Z,12.40
2023-08-22T01:54:35.933Z,11.90
2023-08-22T01:57:54.475Z,11.90
2023-08-22T02:01:14.577Z,12.20
2023-08-22T02:04:32.802Z,11.80
2023-08-22T02:07:56.875Z,11.60
2023-08-22T02:14:35.674Z,10.90
2023-08-22T02:17:57.638Z,12.10
2023-08-22T02:21:19.667Z,11.70
2023-08-22T02:24:33.148Z,12.80
2023-08-22T02:27:54.382Z,12.50
2023-08-22T02:31:03.405Z,12.20
2023-08-22T02:34:10.113Z,12.20
2023-08-22T02:37:20.921Z,11.40
2023-08-22T02:40:28.213Z,11.70
2023-08-22T02:43:38.935Z,11.70
2023-08-22T02:46:49.909Z,11.60
2023-08-22T02:50:09.661Z,12.00
2023-08-22T02:53:21.131Z,11.90
2023-08-22T02:56:28.469Z,12.70
2023-08-22T02:59:38.937Z,12.20
2023-08-22T03:02:46.227Z,12.10
2023-08-22T03:06:11.818Z,13.60
2023-08-22T03:09:23.638Z,11.30
2023-08-22T03:12:31.319Z,12.90
2023-08-22T03:15:50.384Z,11.90
2023-08-22T03:19:00.648Z,13.00
2023-08-22T03:22:20.235Z,11.30
2023-08-22T03:25:27.847Z,12.30
2023-08-22T03:28:38.610Z,12.50
2023-08-22T03:31:46.487Z,13.00
2023-08-22T03:34:57.411Z,12.80
2023-08-22T03:38:18.297Z,12.20
2023-08-22T03:41:33.844Z,11.50
2023-08-22T03:44:56.010Z,12.90
2023-08-22T03:48:10.262Z,12.90
2023-08-22T03:51:25.669Z,12.10
2023-08-22T03:54:32.696Z,11.80
2023-08-22T03:57:44.120Z,12.20
2023-08-22T04:01:09.607Z,11.50
2023-08-22T04:04:18.496Z,11.30
2023-08-22T04:07:25.619Z,11.70
2023-08-22T04:10:45.107Z,12.20
2023-08-22T04:13:55.895Z,13.40
2023-08-22T04:17:05.604Z,13.60
2023-08-22T04:20:18.759Z,11.20
2023-08-22T04:23:38.629Z,12.20
2023-08-22T04:26:49.255Z,12.70
2023-08-22T04:30:00.546Z,12.30
2023-08-22T04:33:16.649Z,11.30
2023-08-22T04:36:27.266Z,12.70
2023-08-22T04:39:39.220Z,12.70
2023-08-22T04:42:58.528Z,12.50
2023-08-22T04:46:11.414Z,11.90
2023-08-22T04:49:31.347Z,11.90
2023-08-22T04:52:50.307Z,11.30
2023-08-22T04:56:01.649Z,12.10
2023-08-22T04:59:19.697Z,12.60
2023-08-22T05:02:30.324Z,11.70
2023-08-22T05:05:41.684Z,10.80
2023-08-22T05:09:08.045Z,11.40
2023-08-22T05:12:32.325Z,10.70
2023-08-22T05:15:56.937Z,11.00
2023-08-22T05:19:19.816Z,11.90
2023-08-22T05:22:23.654Z,10.40
2023-08-22T05:25:30.171Z,11.20
2023-08-22T05:28:34.207Z,10.70
2023-08-22T05:31:37.869Z,12.20
2023-08-22T05:34:41.830Z,10.90
2023-08-22T05:37:49.694Z,11.50
2023-08-22T05:40:55.186Z,11.60
2023-08-22T05:44:00.766Z,10.80
2023-08-22T05:47:06.101Z,11.00
2023-08-22T05:50:09.587Z,12.10
2023-08-22T05:53:12.884Z,12.10
2023-08-22T05:56:15.753Z,9.90
2023-08-22T05:59:19.401Z,12.40
2023-08-22T06:02:22.393Z,11.10
2023-08-22T06:05:26.067Z,11.10
2023-08-22T06:08:28.882Z,12.10
2023-08-22T06:11:32.634Z,11.10
2023-08-22T06:14:35.712Z,10.30
2023-08-22T06:17:38.997Z,11.20
2023-08-22T06:20:42.092Z,11.10
2023-08-22T06:23:44.968Z,11.50
2023-08-22T06:26:49.905Z,14.10
2023-08-22T06:29:52.803Z,11.60
2023-08-22T06:32:55.768Z,12.80
2023-08-22T06:35:58.710Z,11.50
2023-08-22T06:39:01.542Z,12.00
2023-08-22T06:42:08.193Z,10.90
2023-08-22T06:45:11.193Z,11.50
2023-08-22T06:48:23.760Z,14.00
2023-08-22T06:51:42.368Z,12.70
2023-08-22T11:10:53.601Z,12.60
2023-08-22T11:14:00.747Z,10.10
2023-08-22T11:17:04.651Z,11.10
2023-08-22T11:20:37.717Z,10.40
2023-08-22T11:23:43.792Z,10.50
2023-08-22T11:26:56.013Z,9.40
2023-08-22T11:30:07.622Z,10.20
2023-08-22T11:33:21.265Z,9.20
2023-08-22T11:36:33.861Z,10.00
2023-08-22T11:39:39.556Z,9.90
2023-08-22T11:42:50.399Z,11.70
2023-08-22T11:45:55.996Z,10.30
2023-08-22T11:49:07.711Z,9.20
2023-08-22T11:52:29.478Z,10.60
2023-08-22T11:55:35.330Z,10.50
2023-08-22T11:58:53.989Z,10.30
2023-08-22T12:02:15.377Z,11.10
2023-08-22T12:05:37.699Z,11.20
2023-08-22T12:08:57.480Z,9.50
2023-08-22T12:12:16.372Z,10.80
2023-08-22T12:15:23.308Z,10.70
2023-08-22T12:18:49.293Z,9.90
2023-08-22T12:21:58.131Z,10.10
2023-08-22T12:25:10.463Z,10.80
2023-08-22T12:28:15.873Z,10.90
2023-08-22T12:31:22.132Z,9.80
2023-08-22T12:34:27.542Z,10.10
2023-08-22T12:37:46.422Z,10.50
2023-08-22T12:41:08.811Z,9.60
2023-08-22T12:44:13.164Z,9.70
2023-08-22T12:47:20.608Z,9.50
2023-08-22T12:50:28.478Z,9.60
2023-08-22T12:53:33.563Z,8.70
2023-08-22T12:56:55.859Z,9.60
2023-08-22T13:00:01.085Z,10.30
2023-08-22T13:06:11.125Z,8.10
2023-08-22T13:09:16.948Z,8.50
2023-08-22T13:12:24.696Z,8.70
2023-08-22T13:15:38.685Z,9.60
2023-08-22T13:18:51.790Z,9.70
2023-08-22T13:22:00.266Z,9.40
2023-08-22T13:25:15.521Z,9.50
2023-08-22T13:28:19.617Z,8.90
2023-08-22T13:31:24.925Z,9.90
2023-08-22T13:34:28.531Z,8.80
2023-08-22T13:37:35.137Z,9.10
2023-08-22T13:40:47.521Z,8.50
2023-08-22T13:43:54.627Z,8.80
2023-08-22T13:47:00.484Z,9.80
2023-08-22T13:50:25.976Z,9.40
2023-08-22T13:57:35.622Z,8.10
2023-08-22T14:00:43.335Z,9.30
2023-08-22T14:04:06.548Z,8.70
2023-08-22T14:07:25.436Z,9.30
2023-08-22T14:10:32.568Z,9.10
2023-08-22T14:14:01.984Z,9.00
2023-08-22T14:17:10.163Z,8.80
2023-08-22T14:20:19.170Z,9.00
2023-08-22T14:23:24.166Z,8.90
2023-08-22T14:26:38.351Z,9.30
2023-08-22T14:29:47.332Z,8.50
2023-08-22T14:32:58.003Z,9.90
2023-08-22T14:36:10.159Z,8.90
2023-08-22T14:41:19.427Z,9.30
2023-08-22T14:44:27.225Z,8.70
2023-08-22T14:47:32.463Z,8.60
2023-08-22T14:50:45.708Z,9.30
2023-08-22T14:53:53.362Z,8.60
2023-08-22T14:56:58.361Z,8.10
2023-08-22T15:00:05.736Z,7.20
2023-08-22T15:03:11.343Z,8.00
2023-08-22T15:06:54.443Z,8.50
2023-08-22T15:10:08.364Z,8.80
2023-08-22T15:13:23.277Z,8.40
2023-08-22T15:16:27.642Z,8.50
2023-08-22T15:19:32.371Z,9.10
2023-08-22T15:22:56.774Z,8.80
2023-08-22T15:26:48.883Z,9.60
2023-08-22T15:30:08.977Z,8.30
2023-08-22T15:33:12.893Z,9.30
2023-08-22T15:36:45.576Z,8.50
2023-08-22T15:39:52.535Z,8.60
2023-08-22T15:43:01.033Z,8.80
2023-08-22T15:46:07.658Z,8.60
2023-08-22T15:49:13.586Z,9.20
2023-08-22T15:52:57.914Z,8.90
2023-08-22T15:56:08.950Z,8.20
2023-08-22T15:59:42.531Z,8.40
2023-08-22T16:03:26.242Z,9.90
2023-08-22T16:10:10.568Z,8.50
2023-08-22T16:13:17.605Z,9.40
2023-08-22T16:16:30.678Z,9.70
2023-08-22T16:20:02.245Z,9.10
2023-08-22T16:23:32.427Z,10.70
2023-08-22T16:26:53.617Z,9.10
2023-08-22T16:30:23.998Z,10.00
2023-08-22T16:33:32.410Z,9.90
2023-08-22T16:36:56.117Z,8.70
2023-08-22T16:40:05.313Z,8.60
2023-08-22T16:43:48.694Z,8.90
2023-08-22T16:47:07.060Z,8.30
2023-08-22T16:50:21.688Z,8.70
2023-08-22T16:53:40.858Z,8.30
2023-08-22T16:57:01.284Z,8.80
2023-08-22T17:00:26.114Z,14.30
2023-08-22T17:03:34.188Z,13.60
2023-08-22T17:07:13.968Z,9.50
2023-08-22T17:10:45.195Z,9.50
2023-08-22T17:14:05.446Z,9.90
2023-08-22T17:17:13.361Z,11.10
2023-08-22T17:20:34.406Z,12.00
2023-08-22T17:23:45.192Z,13.40
2023-08-22T17:27:28.785Z,18.90
2023-08-22T17:31:15.411Z,13.10
2023-08-22T17:34:22.869Z,13.10
2023-08-22T17:38:21.949Z,11.30
2023-08-22T17:41:40.807Z,13.00
2023-08-22T17:44:48.822Z,9.30
2023-08-22T17:48:16.692Z,8.50
2023-08-22T17:52:02.380Z,8.00
2023-08-22T17:55:21.575Z,8.00
2023-08-22T17:58:49.566Z,6.60
2023-08-22T18:02:13.114Z,6.90
2023-08-22T18:05:41.078Z,6.70
2023-08-22T18:09:15.678Z,6.30
2023-08-22T18:12:49.270Z,6.70
2023-08-22T18:16:35.292Z,6.70
2023-08-22T18:19:56.759Z,6.50
2023-08-22T18:23:16.377Z,5.60
2023-08-22T18:26:44.476Z,6.80
2023-08-22T18:29:53.451Z,9.80
2023-08-22T18:33:17.829Z,16.00
2023-08-22T18:36:33.650Z,12.20
2023-08-22T18:43:25.768Z,6.50
2023-08-22T18:46:51.568Z,8.90
2023-08-22T18:50:17.325Z,8.40
2023-08-22T18:53:30.367Z,7.40
2023-08-22T18:56:57.339Z,10.90
2023-08-22T19:00:23.949Z,8.90
2023-08-22T19:03:32.939Z,8.20
2023-08-22T19:07:04.733Z,7.60
2023-08-22T19:10:30.428Z,7.60
2023-08-22T19:13:55.964Z,8.20
2023-08-22T19:17:26.708Z,14.80
2023-08-22T19:21:18.126Z,9.40
2023-08-22T19:24:39.846Z,5.70
2023-08-22T19:28:02.155Z,5.60
2023-08-22T19:31:17.551Z,7.60
2023-08-22T19:34:37.466Z,7.10
2023-08-22T19:38:01.296Z,7.20
2023-08-22T19:41:21.642Z,6.30
2023-08-22T19:44:42.248Z,6.30
2023-08-22T19:48:07.650Z,5.50
2023-08-22T19:51:40.591Z,5.40
2023-08-22T19:55:06.969Z,7.10
2023-08-22T19:58:41.200Z,10.80
2023-08-22T20:02:13.453Z,8.30
2023-08-22T20:05:28.546Z,7.60
2023-08-22T20:09:20.249Z,7.20
2023-08-22T20:12:46.594Z,7.80
2023-08-22T20:16:06.838Z,7.90
2023-08-22T20:19:26.009Z,8.90
2023-08-22T20:22:50.507Z,8.60
2023-08-22T20:26:23.140Z,8.20
2023-08-22T20:29:43.840Z,8.80
2023-08-22T20:33:08.412Z,8.80
2023-08-22T20:36:24.275Z,8.60
2023-08-22T20:39:43.452Z,8.40
2023-08-22T20:43:04.494Z,10.30
2023-08-22T20:46:31.388Z,7.90
2023-08-22T20:49:58.041Z,9.20
2023-08-22T20:53:47.828Z,8.50
2023-08-22T20:57:11.390Z,10.70
2023-08-22T21:00:34.260Z,9.90
2023-08-22T21:03:51.166Z,10.20
2023-08-22T21:10:42.530Z,9.00
2023-08-22T21:14:04.037Z,9.70
2023-08-22T21:17:24.308Z,10.50
2023-08-22T21:20:37.442Z,10.10
2023-08-22T21:24:15.287Z,10.60
2023-08-22T21:28:04.447Z,12.60
2023-08-22T21:31:44.894Z,10.10
2023-08-22T21:34:58.178Z,10.70
2023-08-22T21:41:40.299Z,9.90
2023-08-22T21:45:01.951Z,11.00
2023-08-22T21:48:23.691Z,12.00
2023-08-22T21:52:02.743Z,15.20
2023-08-22T21:55:26.908Z,13.60
2023-08-22T21:58:49.905Z,14.40
2023-08-22T22:02:11.492Z,13.70
2023-08-22T22:05:38.972Z,13.80
2023-08-22T22:08:58.853Z,12.40
2023-08-22T22:12:33.393Z,10.90
2023-08-22T22:15:57.294Z,7.50
2023-08-22T22:19:24.143Z,7.20
2023-08-22T22:23:11.503Z,7.70
2023-08-22T22:26:30.402Z,9.30
2023-08-22T22:29:49.112Z,7.80
2023-08-22T22:33:15.286Z,8.50
2023-08-22T22:36:34.112Z,9.40
2023-08-22T22:39:55.736Z,7.60
2023-08-22T22:43:14.041Z,8.10
2023-08-22T22:46:41.035Z,8.90
2023-08-22T22:50:07.207Z,8.50
2023-08-22T22:53:48.257Z,8.40
2023-08-22T22:57:06.518Z,9.00
2023-08-22T23:00:19.591Z,9.20
2023-08-22T23:03:58.007Z,10.10
2023-08-22T23:07:17.031Z,9.30
2023-08-22T23:10:38.845Z,8.90
2023-08-22T23:14:06.894Z,10.00
2023-08-22T23:17:45.968Z,7.20
2023-08-22T23:21:09.550Z,8.10
2023-08-22T23:24:29.141Z,9.60
2023-08-22T23:27:53.676Z,10.00
2023-08-22T23:31:26.015Z,11.50
2023-08-22T23:34:50.539Z,11.30
2023-08-22T23:38:22.096Z,12.00
2023-08-22T23:41:49.600Z,10.40
2023-08-22T23:45:17.394Z,12.00
2023-08-22T23:48:40.733Z,12.30
2023-08-22T23:52:04.435Z,13.00
2023-08-22T23:55:15.861Z,11.40
2023-08-22T23:58:40.921Z,12.10
